Terminal Aerodrome Forecast
Issued by NWS

Home | Current Version | Previous Version | Text Only | Print | Product List | Glossary On
Versions: 1 2 3 4 5 6 7 8 9 10 11 12 13 14 15 16 17 18 19
000
FTUS46 KLOX 182300
TAFOXR
TAF
KOXR 182321Z 1900/1924 VRB03KT P6SM OVC035
     FM190300 VRB03KT P6SM BKN025
     FM192000 26008KT P6SM BKN030=

USA.gov is the U.S. government's official web portal to all federal, state and local government web resources and services.